sensor_id;sensor_type;location;lat;lon;timestamp;pressure;altitude;pressure_sealevel;temperature;humidity
75767;BME280;64378;55.596;13.014;2022-11-20T00:02:07;101052.28;;;16.32;39.88
75767;BME280;64378;55.596;13.014;2022-11-20T00:04:33;101051.47;;;16.32;40.04
75767;BME280;64378;55.596;13.014;2022-11-20T00:06:58;101051.88;;;16.29;39.87
75767;BME280;64378;55.596;13.014;2022-11-20T00:09:23;101054.00;;;16.27;40.10
75767;BME280;64378;55.596;13.014;2022-11-20T00:11:48;101052.59;;;16.25;39.98
75767;BME280;64378;55.596;13.014;2022-11-20T00:14:14;101060.38;;;16.21;40.17
75767;BME280;64378;55.596;13.014;2022-11-20T00:16:39;101054.56;;;16.18;39.88
75767;BME280;64378;55.596;13.014;2022-11-20T00:19:04;101054.81;;;16.16;39.80
75767;BME280;64378;55.596;13.014;2022-11-20T00:21:30;101058.81;;;16.14;39.80
75767;BME280;64378;55.596;13.014;2022-11-20T00:23:56;101059.28;;;16.11;39.61
75767;BME280;64378;55.596;13.014;2022-11-20T00:26:22;101060.56;;;16.08;39.64
75767;BME280;64378;55.596;13.014;2022-11-20T00:28:52;101068.13;;;16.06;39.79
75767;BME280;64378;55.596;13.014;2022-11-20T00:31:17;101064.56;;;16.06;39.61
75767;BME280;64378;55.596;13.014;2022-11-20T00:33:43;101066.94;;;16.02;39.29
75767;BME280;64378;55.596;13.014;2022-11-20T00:36:09;101075.34;;;16.01;39.47
75767;BME280;64378;55.596;13.014;2022-11-20T00:38:35;101071.16;;;15.98;39.36
75767;BME280;64378;55.596;13.014;2022-11-20T00:41:01;101075.78;;;15.98;39.59
75767;BME280;64378;55.596;13.014;2022-11-20T00:43:27;101078.97;;;15.95;39.55
75767;BME280;64378;55.596;13.014;2022-11-20T00:46:34;101074.59;;;15.94;39.19
75767;BME280;64378;55.596;13.014;2022-11-20T00:48:41;101071.25;;;15.92;39.07
75767;BME280;64378;55.596;13.014;2022-11-20T00:51:06;101073.38;;;15.90;39.11
75767;BME280;64378;55.596;13.014;2022-11-20T00:53:32;101070.06;;;15.88;39.38
75767;BME280;64378;55.596;13.014;2022-11-20T00:56:07;101076.56;;;15.87;39.36
75767;BME280;64378;55.596;13.014;2022-11-20T00:58:35;101073.22;;;15.85;38.99
75767;BME280;64378;55.596;13.014;2022-11-20T01:01:04;101079.72;;;15.84;39.12
75767;BME280;64378;55.596;13.014;2022-11-20T01:03:33;101085.41;;;15.82;39.11
75767;BME280;64378;55.596;13.014;2022-11-20T01:05:59;101088.34;;;15.81;38.59
75767;BME280;64378;55.596;13.014;2022-11-20T01:08:25;101084.19;;;15.78;39.09
75767;BME280;64378;55.596;13.014;2022-11-20T01:10:50;101077.94;;;15.78;38.95
75767;BME280;64378;55.596;13.014;2022-11-20T01:13:15;101081.72;;;15.77;39.03
75767;BME280;64378;55.596;13.014;2022-11-20T01:18:44;101079.66;;;15.72;38.65
75767;BME280;64378;55.596;13.014;2022-11-20T01:21:11;101078.22;;;15.70;38.85
75767;BME280;64378;55.596;13.014;2022-11-20T01:23:38;101077.38;;;15.69;38.50
75767;BME280;64378;55.596;13.014;2022-11-20T01:26:04;101080.34;;;15.68;38.71
75767;BME280;64378;55.596;13.014;2022-11-20T01:28:30;101081.41;;;15.67;38.53
75767;BME280;64378;55.596;13.014;2022-11-20T01:30:55;101081.66;;;15.65;38.67
75767;BME280;64378;55.596;13.014;2022-11-20T01:33:21;101078.31;;;15.63;38.57
75767;BME280;64378;55.596;13.014;2022-11-20T01:35:46;101079.38;;;15.62;38.44
75767;BME280;64378;55.596;13.014;2022-11-20T01:38:11;101079.59;;;15.61;38.44
75767;BME280;64378;55.596;13.014;2022-11-20T01:40:36;101070.81;;;15.59;38.34
75767;BME280;64378;55.596;13.014;2022-11-20T01:43:10;101072.94;;;15.57;38.55
75767;BME280;64378;55.596;13.014;2022-11-20T01:45:59;101069.59;;;15.55;38.46
75767;BME280;64378;55.596;13.014;2022-11-20T01:48:33;101073.16;;;15.55;38.53
75767;BME280;64378;55.596;13.014;2022-11-20T01:51:01;101076.13;;;15.54;38.53
75767;BME280;64378;55.596;13.014;2022-11-20T01:53:28;101072.81;;;15.52;38.46
75767;BME280;64378;55.596;13.014;2022-11-20T01:55:56;101068.19;;;15.52;38.52
75767;BME280;64378;55.596;13.014;2022-11-20T01:58:25;101068.41;;;15.51;38.14
75767;BME280;64378;55.596;13.014;2022-11-20T02:00:52;101062.97;;;15.51;38.20
75767;BME280;64378;55.596;13.014;2022-11-20T02:03:17;101068.41;;;15.51;38.65
75767;BME280;64378;55.596;13.014;2022-11-20T02:08:24;101061.31;;;15.50;38.34
75767;BME280;64378;55.596;13.014;2022-11-20T02:10:49;101064.25;;;15.48;38.17
75767;BME280;64378;55.596;13.014;2022-11-20T02:13:15;101060.09;;;15.46;38.57
75767;BME280;64378;55.596;13.014;2022-11-20T02:15:59;101060.91;;;15.46;38.64
75767;BME280;64378;55.596;13.014;2022-11-20T02:18:24;101062.22;;;15.44;38.80
75767;BME280;64378;55.596;13.014;2022-11-20T02:20:53;101058.44;;;15.45;38.54
75767;BME280;64378;55.596;13.014;2022-11-20T02:25:51;101061.38;;;15.43;38.33
75767;BME280;64378;55.596;13.014;2022-11-20T02:28:17;101048.81;;;15.42;38.32
75767;BME280;64378;55.596;13.014;2022-11-20T02:30:43;101047.19;;;15.41;38.49
75767;BME280;64378;55.596;13.014;2022-11-20T02:33:08;101049.06;;;15.41;38.48
75767;BME280;64378;55.596;13.014;2022-11-20T02:37:59;101047.41;;;15.40;38.74
75767;BME280;64378;55.596;13.014;2022-11-20T02:40:26;101050.97;;;15.40;38.71
75767;BME280;64378;55.596;13.014;2022-11-20T02:42:52;101041.16;;;15.39;38.78
75767;BME280;64378;55.596;13.014;2022-11-20T02:45:17;101045.75;;;15.39;38.52
75767;BME280;64378;55.596;13.014;2022-11-20T02:47:42;101044.06;;;15.38;38.62
75767;BME280;64378;55.596;13.014;2022-11-20T02:50:07;101043.03;;;15.39;38.71
75767;BME280;64378;55.596;13.014;2022-11-20T02:52:33;101044.06;;;15.38;38.64
75767;BME280;64378;55.596;13.014;2022-11-20T02:54:58;101047.84;;;15.37;38.76
75767;BME280;64378;55.596;13.014;2022-11-20T02:57:23;101057.91;;;15.36;38.36
75767;BME280;64378;55.596;13.014;2022-11-20T02:59:48;101057.06;;;15.36;38.92
75767;BME280;64378;55.596;13.014;2022-11-20T03:02:14;101054.34;;;15.36;38.49
75767;BME280;64378;55.596;13.014;2022-11-20T03:04:39;101046.44;;;15.34;38.57
75767;BME280;64378;55.596;13.014;2022-11-20T03:07:04;101056.47;;;15.34;38.42
75767;BME280;64378;55.596;13.014;2022-11-20T03:09:29;101051.03;;;15.34;38.57
75767;BME280;64378;55.596;13.014;2022-11-20T03:11:54;101041.19;;;15.33;38.65
75767;BME280;64378;55.596;13.014;2022-11-20T03:14:20;101048.53;;;15.32;38.47
75767;BME280;64378;55.596;13.014;2022-11-20T03:16:45;101054.78;;;15.33;38.64
75767;BME280;64378;55.596;13.014;2022-11-20T03:19:11;101053.13;;;15.32;38.65
75767;BME280;64378;55.596;13.014;2022-11-20T03:21:36;101050.41;;;15.32;38.56
75767;BME280;64378;55.596;13.014;2022-11-20T03:24:02;101049.81;;;15.30;38.49
75767;BME280;64378;55.596;13.014;2022-11-20T03:26:28;101050.66;;;15.30;38.60
75767;BME280;64378;55.596;13.014;2022-11-20T03:28:54;101053.59;;;15.29;38.39
75767;BME280;64378;55.596;13.014;2022-11-20T03:31:21;101055.47;;;15.28;38.31
75767;BME280;64378;55.596;13.014;2022-11-20T03:33:46;101057.38;;;15.28;38.35
75767;BME280;64378;55.596;13.014;2022-11-20T03:36:13;101047.56;;;15.27;38.30
75767;BME280;64378;55.596;13.014;2022-11-20T03:38:39;101044.84;;;15.27;38.32
75767;BME280;64378;55.596;13.014;2022-11-20T03:41:06;101042.31;;;15.25;38.35
75767;BME280;64378;55.596;13.014;2022-11-20T03:43:31;101038.75;;;15.25;38.66
75767;BME280;64378;55.596;13.014;2022-11-20T03:45:57;101048.78;;;15.24;38.10
75767;BME280;64378;55.596;13.014;2022-11-20T03:48:22;101046.31;;;15.23;38.15
75767;BME280;64378;55.596;13.014;2022-11-20T03:50:47;101045.47;;;15.22;38.04
75767;BME280;64378;55.596;13.014;2022-11-20T03:53:13;101048.44;;;15.21;38.18
75767;BME280;64378;55.596;13.014;2022-11-20T03:55:38;101051.34;;;15.19;38.13
75767;BME280;64378;55.596;13.014;2022-11-20T03:58:03;101053.25;;;15.19;38.02
75767;BME280;64378;55.596;13.014;2022-11-20T04:00:29;101055.13;;;15.18;38.02
75767;BME280;64378;55.596;13.014;2022-11-20T04:02:57;101052.41;;;15.18;38.35
75767;BME280;64378;55.596;13.014;2022-11-20T04:05:22;101046.97;;;15.18;38.40
75767;BME280;64378;55.596;13.014;2022-11-20T04:07:47;101048.03;;;15.17;38.22
75767;BME280;64378;55.596;13.014;2022-11-20T04:10:12;101046.16;;;15.18;38.16
75767;BME280;64378;55.596;13.014;2022-11-20T04:12:38;101047.19;;;15.17;38.31
75767;BME280;64378;55.596;13.014;2022-11-20T04:15:03;101036.34;;;15.17;38.44
75767;BME280;64378;55.596;13.014;2022-11-20T04:17:28;101032.75;;;15.16;38.05
75767;BME280;64378;55.596;13.014;2022-11-20T04:19:53;101031.94;;;15.16;38.11
75767;BME280;64378;55.596;13.014;2022-11-20T04:22:19;101035.72;;;15.15;38.17
75767;BME280;64378;55.596;13.014;2022-11-20T04:24:44;101033.84;;;15.16;38.13
75767;BME280;64378;55.596;13.014;2022-11-20T04:27:09;101033.00;;;15.15;37.95
75767;BME280;64378;55.596;13.014;2022-11-20T04:29:34;101028.63;;;15.14;38.00
75767;BME280;64378;55.596;13.014;2022-11-20T04:31:59;101038.44;;;15.15;37.89
75767;BME280;64378;55.596;13.014;2022-11-20T04:34:25;101033.00;;;15.15;38.31
75767;BME280;64378;55.596;13.014;2022-11-20T04:36:50;101036.78;;;15.14;38.38
75767;BME280;64378;55.596;13.014;2022-11-20T04:39:15;101036.78;;;15.14;38.36
75767;BME280;64378;55.596;13.014;2022-11-20T04:41:40;101032.41;;;15.13;38.40
75767;BME280;64378;55.596;13.014;2022-11-20T04:44:06;101028.63;;;15.14;38.62
75767;BME280;64378;55.596;13.014;2022-11-20T04:46:32;101027.81;;;15.14;38.26
75767;BME280;64378;55.596;13.014;2022-11-20T04:48:58;101026.97;;;15.13;38.33
75767;BME280;64378;55.596;13.014;2022-11-20T04:51:23;101026.97;;;15.13;38.01
75767;BME280;64378;55.596;13.014;2022-11-20T04:53:49;101026.97;;;15.13;38.22
75767;BME280;64378;55.596;13.014;2022-11-20T04:56:14;101019.88;;;15.12;38.20
75767;BME280;64378;55.596;13.014;2022-11-20T04:58:40;101016.53;;;15.10;38.22
75767;BME280;64378;55.596;13.014;2022-11-20T05:01:12;101020.91;;;15.11;38.14
75767;BME280;64378;55.596;13.014;2022-11-20T05:03:38;101022.81;;;15.11;38.12
75767;BME280;64378;55.596;13.014;2022-11-20T05:06:04;101020.91;;;15.11;38.13
75767;BME280;64378;55.596;13.014;2022-11-20T05:08:30;101013.00;;;15.10;38.13
75767;BME280;64378;55.596;13.014;2022-11-20T05:10:59;101020.31;;;15.09;38.08
75767;BME280;64378;55.596;13.014;2022-11-20T05:13:25;101022.22;;;15.09;38.17
75767;BME280;64378;55.596;13.014;2022-11-20T05:15:50;101018.66;;;15.08;38.13
75767;BME280;64378;55.596;13.014;2022-11-20T05:18:15;101021.34;;;15.08;38.12
75767;BME280;64378;55.596;13.014;2022-11-20T05:20:40;101024.06;;;15.08;37.92
75767;BME280;64378;55.596;13.014;2022-11-20T05:23:05;101021.59;;;15.07;37.66
75767;BME280;64378;55.596;13.014;2022-11-20T05:25:31;101031.63;;;15.06;38.18
75767;BME280;64378;55.596;13.014;2022-11-20T05:27:56;101019.09;;;15.05;38.47
75767;BME280;64378;55.596;13.014;2022-11-20T05:30:21;101026.19;;;15.06;38.16
75767;BME280;64378;55.596;13.014;2022-11-20T05:32:46;101019.94;;;15.06;38.21
75767;BME280;64378;55.596;13.014;2022-11-20T05:35:11;101013.66;;;15.05;38.13
75767;BME280;64378;55.596;13.014;2022-11-20T05:37:37;101019.94;;;15.06;38.20
75767;BME280;64378;55.596;13.014;2022-11-20T05:40:02;101014.50;;;15.06;37.70
75767;BME280;64378;55.596;13.014;2022-11-20T05:42:29;101015.31;;;15.06;37.67
75767;BME280;64378;55.596;13.014;2022-11-20T05:44:55;101018.03;;;15.06;37.82
75767;BME280;64378;55.596;13.014;2022-11-20T05:47:21;101012.84;;;15.05;38.06
75767;BME280;64378;55.596;13.014;2022-11-20T05:49:46;101017.44;;;15.04;38.02
75767;BME280;64378;55.596;13.014;2022-11-20T05:52:11;101018.50;;;15.03;38.04
75767;BME280;64378;55.596;13.014;2022-11-20T05:54:36;101013.06;;;15.03;37.97
75767;BME280;64378;55.596;13.014;2022-11-20T05:57:01;101015.78;;;15.03;37.90
75767;BME280;64378;55.596;13.014;2022-11-20T05:59:27;101014.13;;;15.02;37.58
75767;BME280;64378;55.596;13.014;2022-11-20T06:01:52;101008.69;;;15.02;37.90
75767;BME280;64378;55.596;13.014;2022-11-20T06:04:17;101010.56;;;15.02;37.84
75767;BME280;64378;55.596;13.014;2022-11-20T06:06:42;101010.81;;;15.00;37.59
75767;BME280;64378;55.596;13.014;2022-11-20T06:09:08;101003.72;;;14.99;38.10
75767;BME280;64378;55.596;13.014;2022-11-20T06:11:33;101005.38;;;15.00;38.15
75767;BME280;64378;55.596;13.014;2022-11-20T06:13:58;101009.13;;;14.99;37.96
75767;BME280;64378;55.596;13.014;2022-11-20T06:16:23;101004.75;;;14.98;37.74
75767;BME280;64378;55.596;13.014;2022-11-20T06:18:48;101006.44;;;14.99;37.97
75767;BME280;64378;55.596;13.014;2022-11-20T06:21:15;101001.19;;;14.98;37.96
75767;BME280;64378;55.596;13.014;2022-11-20T06:23:41;101000.38;;;14.97;37.64
75767;BME280;64378;55.596;13.014;2022-11-20T06:26:07;100994.94;;;14.97;37.49
75767;BME280;64378;55.596;13.014;2022-11-20T06:28:33;100985.13;;;14.96;37.84
75767;BME280;64378;55.596;13.014;2022-11-20T06:30:58;100992.44;;;14.96;37.66
75767;BME280;64378;55.596;13.014;2022-11-20T06:33:24;100988.91;;;14.95;37.54
75767;BME280;64378;55.596;13.014;2022-11-20T06:35:49;100994.34;;;14.95;37.69
75767;BME280;64378;55.596;13.014;2022-11-20T06:38:14;100988.91;;;14.95;37.77
75767;BME280;64378;55.596;13.014;2022-11-20T06:40:40;100979.91;;;14.95;37.61
75767;BME280;64378;55.596;13.014;2022-11-20T06:43:06;100973.88;;;14.93;37.37
75767;BME280;64378;55.596;13.014;2022-11-20T06:45:31;100968.44;;;14.93;37.58
75767;BME280;64378;55.596;13.014;2022-11-20T06:47:59;100973.03;;;14.92;37.86
75767;BME280;64378;55.596;13.014;2022-11-20T06:50:24;100980.34;;;14.92;37.98
75767;BME280;64378;55.596;13.014;2022-11-20T06:52:49;100985.78;;;14.92;37.58
75767;BME280;64378;55.596;13.014;2022-11-20T06:55:15;100985.78;;;14.92;37.76
75767;BME280;64378;55.596;13.014;2022-11-20T06:57:40;100988.50;;;14.92;37.57
75767;BME280;64378;55.596;13.014;2022-11-20T07:00:05;100983.91;;;14.92;37.67
75767;BME280;64378;55.596;13.014;2022-11-20T07:02:31;100984.97;;;14.91;37.74
75767;BME280;64378;55.596;13.014;2022-11-20T07:04:56;100979.53;;;14.91;37.76
75767;BME280;64378;55.596;13.014;2022-11-20T07:07:21;100982.25;;;14.91;37.61
75767;BME280;64378;55.596;13.014;2022-11-20T07:09:47;100972.44;;;14.90;37.77
75767;BME280;64378;55.596;13.014;2022-11-20T07:12:12;100974.09;;;14.91;37.70
75767;BME280;64378;55.596;13.014;2022-11-20T07:14:37;100968.91;;;14.90;37.75
75767;BME280;64378;55.596;13.014;2022-11-20T07:17:02;100968.91;;;14.90;37.57
75767;BME280;64378;55.596;13.014;2022-11-20T07:19:28;100977.88;;;14.90;37.77
75767;BME280;64378;55.596;13.014;2022-11-20T07:21:53;100980.81;;;14.89;37.79
75767;BME280;64378;55.596;13.014;2022-11-20T07:24:18;100977.06;;;14.90;37.65
75767;BME280;64378;55.596;13.014;2022-11-20T07:26:45;100968.91;;;14.90;37.65
75767;BME280;64378;55.596;13.014;2022-11-20T07:29:10;100970.78;;;14.89;37.82
75767;BME280;64378;55.596;13.014;2022-11-20T07:31:36;100969.97;;;14.89;37.90
75767;BME280;64378;55.596;13.014;2022-11-20T07:34:01;100968.06;;;14.89;37.74
75767;BME280;64378;55.596;13.014;2022-11-20T07:36:26;100970.78;;;14.89;37.43
75767;BME280;64378;55.596;13.014;2022-11-20T07:38:52;100972.44;;;14.90;37.53
75767;BME280;64378;55.596;13.014;2022-11-20T07:41:17;100967.25;;;14.89;37.63
75767;BME280;64378;55.596;13.014;2022-11-20T07:43:42;100958.84;;;14.90;37.69
75767;BME280;64378;55.596;13.014;2022-11-20T07:46:07;100963.47;;;14.90;37.71
75767;BME280;64378;55.596;13.014;2022-11-20T07:48:33;100961.56;;;14.90;37.77
75767;BME280;64378;55.596;13.014;2022-11-20T07:50:58;100959.91;;;14.89;37.71
75767;BME280;64378;55.596;13.014;2022-11-20T07:53:23;100968.06;;;14.89;37.95
75767;BME280;64378;55.596;13.014;2022-11-20T07:55:49;100952.59;;;14.90;37.61
75767;BME280;64378;55.596;13.014;2022-11-20T07:58:17;100948.22;;;14.89;37.80
75767;BME280;64378;55.596;13.014;2022-11-20T08:00:42;100951.75;;;14.89;37.59
75767;BME280;64378;55.596;13.014;2022-11-20T08:03:07;100946.31;;;14.89;37.95
75767;BME280;64378;55.596;13.014;2022-11-20T08:05:33;100943.41;;;14.91;37.65
75767;BME280;64378;55.596;13.014;2022-11-20T08:07:58;100958.63;;;14.92;38.17
75767;BME280;64378;55.596;13.014;2022-11-20T08:10:24;100950.25;;;14.93;37.93
75767;BME280;64378;55.596;13.014;2022-11-20T08:12:50;100952.53;;;14.96;37.92
75767;BME280;64378;55.596;13.014;2022-11-20T08:15:34;100944.75;;;15.00;38.04
75767;BME280;64378;55.596;13.014;2022-11-20T08:18:00;100943.47;;;15.02;38.15
75767;BME280;64378;55.596;13.014;2022-11-20T08:20:26;100942.19;;;15.05;38.07
75767;BME280;64378;55.596;13.014;2022-11-20T08:22:51;100939.22;;;15.06;37.80
75767;BME280;64378;55.596;13.014;2022-11-20T08:25:16;100944.81;;;15.11;37.95
75767;BME280;64378;55.596;13.014;2022-11-20T08:27:41;100940.59;;;15.15;37.67
75767;BME280;64378;55.596;13.014;2022-11-20T08:30:07;100940.16;;;15.18;37.69
75767;BME280;64378;55.596;13.014;2022-11-20T08:32:32;100944.88;;;15.22;37.46
75767;BME280;64378;55.596;13.014;2022-11-20T08:34:59;100932.75;;;15.25;37.53
75767;BME280;64378;55.596;13.014;2022-11-20T08:37:25;100940.25;;;15.29;37.50
75767;BME280;64378;55.596;13.014;2022-11-20T08:39:50;100935.16;;;15.33;37.40
75767;BME280;64378;55.596;13.014;2022-11-20T08:42:15;100933.66;;;15.37;37.33
75767;BME280;64378;55.596;13.014;2022-11-20T08:44:40;100930.50;;;15.40;36.96
75767;BME280;64378;55.596;13.014;2022-11-20T08:47:06;100937.13;;;15.44;37.04
75767;BME280;64378;55.596;13.014;2022-11-20T08:49:31;100941.28;;;15.46;36.88
75767;BME280;64378;55.596;13.014;2022-11-20T08:51:56;100931.84;;;15.49;36.85
75767;BME280;64378;55.596;13.014;2022-11-20T08:54:21;100937.63;;;15.52;36.60
75767;BME280;64378;55.596;13.014;2022-11-20T08:56:47;100936.59;;;15.53;36.46
75767;BME280;64378;55.596;13.014;2022-11-20T08:59:13;100942.38;;;15.57;36.59
75767;BME280;64378;55.596;13.014;2022-11-20T09:01:38;100942.78;;;15.60;36.32
75767;BME280;64378;55.596;13.014;2022-11-20T09:04:04;100942.31;;;15.63;36.50
75767;BME280;64378;55.596;13.014;2022-11-20T09:06:29;100937.22;;;15.67;36.45
75767;BME280;64378;55.596;13.014;2022-11-20T09:08:54;100933.47;;;15.68;36.36
75767;BME280;64378;55.596;13.014;2022-11-20T09:11:20;100938.44;;;15.71;36.38
75767;BME280;64378;55.596;13.014;2022-11-20T09:13:45;100936.91;;;15.75;37.44
75767;BME280;64378;55.596;13.014;2022-11-20T09:16:10;100936.81;;;15.81;37.55
75767;BME280;64378;55.596;13.014;2022-11-20T09:18:36;100942.16;;;15.88;38.12
75767;BME280;64378;55.596;13.014;2022-11-20T09:21:03;100934.72;;;15.95;38.38
75767;BME280;64378;55.596;13.014;2022-11-20T09:23:33;100938.19;;;16.02;38.64
75767;BME280;64378;55.596;13.014;2022-11-20T09:26:01;100941.88;;;16.07;38.59
75767;BME280;64378;55.596;13.014;2022-11-20T09:28:26;100937.38;;;16.13;38.68
75767;BME280;64378;55.596;13.014;2022-11-20T09:30:52;100937.50;;;16.18;38.37
75767;BME280;64378;55.596;13.014;2022-11-20T09:33:17;100929.69;;;16.21;38.56
75767;BME280;64378;55.596;13.014;2022-11-20T09:35:43;100933.59;;;16.25;38.29
75767;BME280;64378;55.596;13.014;2022-11-20T09:38:09;100935.06;;;16.27;37.85
75767;BME280;64378;55.596;13.014;2022-11-20T09:40:36;100933.53;;;16.31;38.30
75767;BME280;64378;55.596;13.014;2022-11-20T09:45:37;100926.34;;;16.37;38.14
75767;BME280;64378;55.596;13.014;2022-11-20T09:48:29;100919.56;;;16.39;38.94
75767;BME280;64378;55.596;13.014;2022-11-20T09:50:51;100914.25;;;16.44;38.28
75767;BME280;64378;55.596;13.014;2022-11-20T09:55:49;100917.69;;;16.51;38.99
75767;BME280;64378;55.596;13.014;2022-11-20T10:01:01;100912.72;;;16.60;38.08
75767;BME280;64378;55.596;13.014;2022-11-20T10:06:03;100911.41;;;16.62;38.82
75767;BME280;64378;55.596;13.014;2022-11-20T10:08:34;100908.22;;;16.65;39.38
75767;BME280;64378;55.596;13.014;2022-11-20T10:11:05;100901.47;;;16.68;39.09
75767;BME280;64378;55.596;13.014;2022-11-20T10:16:15;100901.34;;;16.74;38.81
75767;BME280;64378;55.596;13.014;2022-11-20T10:18:48;100899.81;;;16.78;39.13
75767;BME280;64378;55.596;13.014;2022-11-20T10:29:57;100887.94;;;16.84;40.93
75767;BME280;64378;55.596;13.014;2022-11-20T10:32:16;100892.09;;;16.87;42.72
75767;BME280;64378;55.596;13.014;2022-11-20T10:34:46;100886.38;;;16.88;45.06
75767;BME280;64378;55.596;13.014;2022-11-20T10:37:16;100882.13;;;16.92;46.48
75767;BME280;64378;55.596;13.014;2022-11-20T10:42:16;100874.66;;;16.99;47.45
75767;BME280;64378;55.596;13.014;2022-11-20T10:44:43;100892.75;;;13.81;35.70
75767;BME280;64378;55.596;13.014;2022-11-20T10:47:27;100876.50;;;13.50;52.05
75767;BME280;64378;55.596;13.014;2022-11-20T10:49:55;100887.00;;;14.02;56.07
75767;BME280;64378;55.596;13.014;2022-11-20T10:54:54;100861.13;;;15.02;53.44
75767;BME280;64378;55.596;13.014;2022-11-20T10:57:36;100863.56;;;15.39;52.28
75767;BME280;64378;55.596;13.014;2022-11-20T11:00:07;100862.47;;;15.69;50.55
75767;BME280;64378;55.596;13.014;2022-11-20T11:02:41;100858.41;;;15.90;49.96
75767;BME280;64378;55.596;13.014;2022-11-20T11:05:13;100856.19;;;16.10;48.50
75767;BME280;64378;55.596;13.014;2022-11-20T11:07:41;100861.53;;;16.27;47.87
75767;BME280;64378;55.596;13.014;2022-11-20T11:10:16;100852.34;;;16.40;47.88
75767;BME280;64378;55.596;13.014;2022-11-20T11:12:46;100851.25;;;16.52;46.72
75767;BME280;64378;55.596;13.014;2022-11-20T11:15:58;100855.03;;;16.63;46.41
75767;BME280;64378;55.596;13.014;2022-11-20T11:17:58;100854.19;;;16.74;46.08
75767;BME280;64378;55.596;13.014;2022-11-20T11:20:24;100857.38;;;16.82;45.45
75767;BME280;64378;55.596;13.014;2022-11-20T11:22:51;100848.81;;;16.90;45.25
75767;BME280;64378;55.596;13.014;2022-11-20T11:25:35;100844.06;;;16.97;44.80
75767;BME280;64378;55.596;13.014;2022-11-20T11:28:02;100852.09;;;17.04;44.36
75767;BME280;64378;55.596;13.014;2022-11-20T11:30:28;100845.38;;;17.06;44.29
75767;BME280;64378;55.596;13.014;2022-11-20T11:33:05;100834.78;;;17.10;43.83
75767;BME280;64378;55.596;13.014;2022-11-20T11:35:31;100839.75;;;17.13;43.51
75767;BME280;64378;55.596;13.014;2022-11-20T11:38:30;100837.38;;;17.16;43.31
75767;BME280;64378;55.596;13.014;2022-11-20T11:40:48;100835.22;;;17.18;43.43
75767;BME280;64378;55.596;13.014;2022-11-20T11:43:18;100829.28;;;17.21;43.10
75767;BME280;64378;55.596;13.014;2022-11-20T11:46:04;100826.31;;;17.23;43.01
75767;BME280;64378;55.596;13.014;2022-11-20T11:48:30;100825.00;;;17.25;43.02
75767;BME280;64378;55.596;13.014;2022-11-20T11:50:56;100820.16;;;17.27;42.81
75767;BME280;64378;55.596;13.014;2022-11-20T11:53:21;100825.34;;;17.29;42.39
75767;BME280;64378;55.596;13.014;2022-11-20T11:55:50;100823.47;;;17.29;42.69
75767;BME280;64378;55.596;13.014;2022-11-20T11:58:20;100829.53;;;17.31;42.14
75767;BME280;64378;55.596;13.014;2022-11-20T12:00:54;100832.00;;;17.33;41.78
75767;BME280;64378;55.596;13.014;2022-11-20T12:03:24;100819.44;;;17.32;41.70
75767;BME280;64378;55.596;13.014;2022-11-20T12:05:57;100827.38;;;17.33;42.08
75767;BME280;64378;55.596;13.014;2022-11-20T12:08:23;100827.63;;;17.32;41.81
75767;BME280;64378;55.596;13.014;2022-11-20T12:10:53;100829.28;;;17.33;41.70
75767;BME280;64378;55.596;13.014;2022-11-20T12:15:55;100822.50;;;17.35;41.56
75767;BME280;64378;55.596;13.014;2022-11-20T12:18:21;100819.75;;;17.35;41.46
75767;BME280;64378;55.596;13.014;2022-11-20T12:21:09;100818.94;;;17.35;41.35
75767;BME280;64378;55.596;13.014;2022-11-20T12:26:03;100814.31;;;17.35;40.80
75767;BME280;64378;55.596;13.014;2022-11-20T12:28:37;100800.69;;;17.35;41.10
75767;BME280;64378;55.596;13.014;2022-11-20T12:33:37;100796.06;;;17.36;41.04
75767;BME280;64378;55.596;13.014;2022-11-20T12:36:06;100786.22;;;17.35;40.87
75767;BME280;64378;55.596;13.014;2022-11-20T12:43:27;100774.47;;;17.34;40.71
75767;BME280;64378;55.596;13.014;2022-11-20T12:49:02;100763.81;;;17.33;40.72
75767;BME280;64378;55.596;13.014;2022-11-20T12:56:43;100763.25;;;17.31;40.64
75767;BME280;64378;55.596;13.014;2022-11-20T13:04:28;100762.41;;;17.30;40.60
75767;BME280;64378;55.596;13.014;2022-11-20T13:06:57;100759.09;;;17.28;40.49
75767;BME280;64378;55.596;13.014;2022-11-20T13:09:23;100763.69;;;17.28;40.19
75767;BME280;64378;55.596;13.014;2022-11-20T13:11:51;100764.53;;;17.28;40.19
75767;BME280;64378;55.596;13.014;2022-11-20T13:17:11;100760.97;;;17.28;40.10
75767;BME280;64378;55.596;13.014;2022-11-20T13:19:39;100765.84;;;17.26;39.88
75767;BME280;64378;55.596;13.014;2022-11-20T13:22:05;100756.84;;;17.25;40.02
75767;BME280;64378;55.596;13.014;2022-11-20T13:24:31;100754.34;;;17.24;40.02
75767;BME280;64378;55.596;13.014;2022-11-20T13:27:00;100748.88;;;17.24;39.69
75767;BME280;64378;55.596;13.014;2022-11-20T13:29:25;100751.03;;;17.22;40.22
75767;BME280;64378;55.596;13.014;2022-11-20T13:31:51;100750.22;;;17.21;39.79
75767;BME280;64378;55.596;13.014;2022-11-20T13:34:23;100744.75;;;17.21;40.03
75767;BME280;64378;55.596;13.014;2022-11-20T13:36:56;100745.84;;;17.20;39.89
75767;BME280;64378;55.596;13.014;2022-11-20T13:39:25;100741.19;;;17.21;40.05
75767;BME280;64378;55.596;13.014;2022-11-20T13:46:50;100738.97;;;17.18;39.93
75767;BME280;64378;55.596;13.014;2022-11-20T13:49:37;100734.34;;;17.18;39.77
75767;BME280;64378;55.596;13.014;2022-11-20T13:54:34;100723.44;;;17.18;39.60